createdAt,value
2023-05-16T00:00:02.838Z,1009.16
2023-05-16T00:01:02.847Z,1009.12
2023-05-16T00:02:02.924Z,1009.10
2023-05-16T00:03:02.870Z,1009.09
2023-05-16T00:04:02.967Z,1009.15
2023-05-16T00:05:02.812Z,1009.14
2023-05-16T00:06:02.780Z,1009.15
2023-05-16T00:07:02.767Z,1009.12
2023-05-16T00:08:02.760Z,1009.13
2023-05-16T00:09:02.757Z,1009.09
2023-05-16T00:10:02.745Z,1009.02
2023-05-16T00:11:02.761Z,1009.12
2023-05-16T00:12:02.751Z,1009.10
2023-05-16T00:13:02.705Z,1009.11
2023-05-16T00:14:02.732Z,1009.14
2023-05-16T00:15:02.674Z,1009.06
2023-05-16T00:16:02.739Z,1009.10
2023-05-16T00:17:02.848Z,1009.11
2023-05-16T00:18:02.714Z,1009.14
2023-05-16T00:19:02.690Z,1009.14
2023-05-16T00:20:02.620Z,1009.19
2023-05-16T00:21:02.618Z,1009.15
2023-05-16T00:22:02.621Z,1009.19
2023-05-16T00:23:02.626Z,1009.21
2023-05-16T00:24:02.654Z,1009.23
2023-05-16T00:25:02.580Z,1009.20
2023-05-16T00:26:02.561Z,1009.22
2023-05-16T00:27:02.594Z,1009.20
2023-05-16T00:28:02.541Z,1009.24
2023-05-16T00:29:02.520Z,1009.28
2023-05-16T00:30:02.542Z,1009.30
2023-05-16T00:31:02.497Z,1009.24
2023-05-16T00:32:02.545Z,1009.28
2023-05-16T00:33:02.509Z,1009.27
2023-05-16T00:34:02.492Z,1009.23
2023-05-16T00:35:02.459Z,1009.28
2023-05-16T00:36:02.999Z,1009.25
2023-05-16T00:37:02.437Z,1009.29
2023-05-16T00:38:02.447Z,1009.31
2023-05-16T00:39:02.414Z,1009.22
2023-05-16T00:40:02.408Z,1009.26
2023-05-16T00:41:02.426Z,1009.20
2023-05-16T00:42:02.388Z,1009.26
2023-05-16T00:43:02.378Z,1009.27
2023-05-16T00:44:02.352Z,1009.27
2023-05-16T00:45:02.380Z,1009.30
2023-05-16T00:46:02.437Z,1009.26
2023-05-16T00:47:02.340Z,1009.32
2023-05-16T00:48:02.376Z,1009.29
2023-05-16T00:49:02.302Z,1009.36
2023-05-16T00:50:02.316Z,1009.37
2023-05-16T00:51:02.321Z,1009.36
2023-05-16T00:52:02.275Z,1009.34
2023-05-16T00:53:02.259Z,1009.34
2023-05-16T00:54:02.250Z,1009.35
2023-05-16T00:55:02.248Z,1009.38
2023-05-16T00:56:02.256Z,1009.39
2023-05-16T00:57:02.217Z,1009.43
2023-05-16T00:58:02.224Z,1009.45
2023-05-16T00:59:02.203Z,1009.43
2023-05-16T01:00:02.191Z,1009.39
2023-05-16T01:01:02.237Z,1009.41
2023-05-16T01:02:02.441Z,1009.41
2023-05-16T01:03:02.226Z,1009.43
2023-05-16T01:04:02.287Z,1009.45
2023-05-16T01:05:02.145Z,1009.44
2023-05-16T01:06:02.137Z,1009.45
2023-05-16T01:07:02.128Z,1009.45
2023-05-16T01:08:02.139Z,1009.43
2023-05-16T01:09:02.087Z,1009.48
2023-05-16T01:10:02.075Z,1009.50
2023-05-16T01:11:02.102Z,1009.54
2023-05-16T01:12:02.072Z,1009.52
2023-05-16T01:13:02.062Z,1009.57
2023-05-16T01:14:02.039Z,1009.53
2023-05-16T01:15:02.013Z,1009.59
2023-05-16T01:16:02.077Z,1009.54
2023-05-16T01:17:01.993Z,1009.61
2023-05-16T01:18:02.112Z,1009.55
2023-05-16T01:19:02.072Z,1009.58
2023-05-16T01:20:01.983Z,1009.55
2023-05-16T01:21:01.948Z,1009.61
2023-05-16T01:22:01.997Z,1009.62
2023-05-16T01:23:01.925Z,1009.62
2023-05-16T01:24:01.925Z,1009.64
2023-05-16T01:25:01.910Z,1009.66
2023-05-16T01:26:01.894Z,1009.58
2023-05-16T01:27:01.886Z,1009.69
2023-05-16T01:28:01.895Z,1009.65
2023-05-16T01:29:01.859Z,1009.67
2023-05-16T01:30:01.844Z,1009.68
2023-05-16T01:31:01.853Z,1009.76
2023-05-16T01:32:01.873Z,1009.70
2023-05-16T01:33:01.912Z,1009.71
2023-05-16T01:34:01.799Z,1009.77
2023-05-16T01:35:01.800Z,1009.78
2023-05-16T01:36:01.780Z,1009.80
2023-05-16T01:37:01.786Z,1009.77
2023-05-16T01:38:01.758Z,1009.76
2023-05-16T01:39:01.765Z,1009.73
2023-05-16T01:40:01.741Z,1009.74
2023-05-16T01:41:01.724Z,1009.78
2023-05-16T01:42:01.718Z,1009.75
2023-05-16T01:43:01.701Z,1009.77
2023-05-16T01:44:01.715Z,1009.73
2023-05-16T01:45:01.703Z,1009.75
2023-05-16T01:46:01.688Z,1009.73
2023-05-16T01:47:01.751Z,1009.81
2023-05-16T01:48:01.685Z,1009.77
2023-05-16T01:49:01.632Z,1009.79
2023-05-16T01:50:01.645Z,1009.80
2023-05-16T01:51:01.633Z,1009.76
2023-05-16T01:52:01.627Z,1009.79
2023-05-16T01:53:01.596Z,1009.82
2023-05-16T01:54:01.582Z,1009.84
2023-05-16T01:55:01.583Z,1009.79
2023-05-16T01:56:01.558Z,1009.84
2023-05-16T01:57:01.564Z,1009.85
2023-05-16T01:58:01.533Z,1009.87
2023-05-16T01:59:01.528Z,1009.91
2023-05-16T02:00:01.523Z,1009.90
2023-05-16T02:01:01.538Z,1009.86
2023-05-16T02:02:01.526Z,1009.85
2023-05-16T02:03:01.548Z,1009.92
2023-05-16T02:04:01.569Z,1010.00
2023-05-16T02:05:01.473Z,1010.03
2023-05-16T02:06:01.474Z,1009.99
2023-05-16T02:07:01.450Z,1010.04
2023-05-16T02:08:01.418Z,1010.07
2023-05-16T02:09:01.414Z,1010.05
2023-05-16T02:10:01.407Z,1010.09
2023-05-16T02:11:01.412Z,1010.09
2023-05-16T02:12:01.389Z,1010.01
2023-05-16T02:13:01.370Z,1010.09
2023-05-16T02:14:02.294Z,1010.03
2023-05-16T02:15:01.362Z,1010.08
2023-05-16T02:16:01.341Z,1010.11
2023-05-16T02:17:01.536Z,1010.06
2023-05-16T02:18:01.375Z,1010.12
2023-05-16T02:19:01.315Z,1009.95
2023-05-16T02:20:01.294Z,1010.10
2023-05-16T02:21:01.320Z,1010.07
2023-05-16T02:22:01.274Z,1010.09
2023-05-16T02:23:01.290Z,1010.08
2023-05-16T02:24:01.269Z,1010.09
2023-05-16T02:25:01.286Z,1009.99
2023-05-16T02:26:01.230Z,1010.06
2023-05-16T02:27:01.227Z,1010.01
2023-05-16T02:28:01.213Z,1010.05
2023-05-16T02:29:01.217Z,1010.05
2023-05-16T02:30:01.199Z,1010.08
2023-05-16T02:31:01.258Z,1010.05
2023-05-16T02:32:01.169Z,1010.10
2023-05-16T02:33:01.238Z,1010.07
2023-05-16T02:34:01.190Z,1010.12
2023-05-16T02:35:01.131Z,1010.10
2023-05-16T02:36:01.149Z,1010.13
2023-05-16T02:37:01.108Z,1010.09
2023-05-16T02:38:01.113Z,1010.13
2023-05-16T02:39:01.096Z,1010.15
2023-05-16T02:40:01.085Z,1010.17
2023-05-16T02:41:01.098Z,1010.15
2023-05-16T02:42:01.062Z,1010.21
2023-05-16T02:43:01.047Z,1010.16
2023-05-16T02:44:01.043Z,1010.11
2023-05-16T02:45:01.031Z,1010.15
2023-05-16T02:46:01.028Z,1010.17
2023-05-16T02:47:01.037Z,1010.16
2023-05-16T02:48:01.033Z,1010.27
2023-05-16T02:49:07.954Z,1010.27
2023-05-16T02:50:00.974Z,1010.29
2023-05-16T02:51:00.968Z,1010.32
2023-05-16T02:52:01.727Z,1010.28
2023-05-16T02:53:00.942Z,1010.31
2023-05-16T02:54:00.937Z,1010.35
2023-05-16T02:55:20.336Z,1010.42
2023-05-16T02:56:00.917Z,1010.41
2023-05-16T02:57:00.939Z,1010.40
2023-05-16T02:58:00.891Z,1010.45
2023-05-16T02:59:00.875Z,1010.45
2023-05-16T03:00:00.873Z,1010.47
2023-05-16T03:01:00.860Z,1010.46
2023-05-16T03:02:00.913Z,1010.51
2023-05-16T03:03:00.974Z,1010.43
2023-05-16T03:04:00.933Z,1010.45
2023-05-16T03:05:00.826Z,1010.45
2023-05-16T03:06:00.810Z,1010.46
2023-05-16T03:07:00.798Z,1010.45
2023-05-16T03:08:00.795Z,1010.50
2023-05-16T03:09:00.798Z,1010.55
2023-05-16T03:10:00.756Z,1010.48
2023-05-16T03:11:00.751Z,1010.54
2023-05-16T03:12:00.750Z,1010.55
2023-05-16T03:13:00.758Z,1010.66
2023-05-16T03:14:01.899Z,1010.62
2023-05-16T03:15:00.748Z,1010.69
2023-05-16T03:16:00.746Z,1010.72
2023-05-16T03:17:00.694Z,1010.68
2023-05-16T03:18:00.775Z,1010.71
2023-05-16T03:19:00.757Z,1010.72
2023-05-16T03:20:00.655Z,1010.78
2023-05-16T03:21:00.662Z,1010.72
2023-05-16T03:22:00.636Z,1010.79
2023-05-16T03:23:00.641Z,1010.71
2023-05-16T03:24:00.669Z,1010.79
2023-05-16T03:25:00.642Z,1010.80
2023-05-16T03:26:00.589Z,1010.81
2023-05-16T03:27:00.596Z,1010.81
2023-05-16T03:28:00.577Z,1010.87
2023-05-16T03:29:00.574Z,1010.88
2023-05-16T03:30:00.580Z,1010.91
2023-05-16T03:31:00.550Z,1010.91
2023-05-16T03:32:00.635Z,1010.89
2023-05-16T03:33:00.576Z,1010.87
2023-05-16T03:34:00.524Z,1010.89
2023-05-16T03:35:00.556Z,1010.91
2023-05-16T03:36:00.486Z,1010.87
2023-05-16T03:37:00.499Z,1010.92
2023-05-16T03:38:00.460Z,1010.90
2023-05-16T03:39:00.452Z,1010.95
2023-05-16T03:40:00.460Z,1010.92
2023-05-16T03:41:00.455Z,1010.98
2023-05-16T03:42:00.437Z,1011.03
2023-05-16T03:43:00.415Z,1011.03
2023-05-16T03:44:00.406Z,1011.02
2023-05-16T03:45:00.419Z,1011.04
2023-05-16T03:46:00.395Z,1011.11
2023-05-16T03:47:00.370Z,1011.05
2023-05-16T03:48:00.456Z,1011.13
2023-05-16T03:49:00.363Z,1011.13
2023-05-16T03:50:00.387Z,1011.15
2023-05-16T03:51:00.332Z,1011.15
2023-05-16T03:52:00.316Z,1011.22
2023-05-16T03:53:00.309Z,1011.18
2023-05-16T03:54:00.305Z,1011.25
2023-05-16T03:55:00.304Z,1011.21
2023-05-16T03:56:00.306Z,1011.23
2023-05-16T03:57:00.269Z,1011.26
2023-05-16T03:58:00.254Z,1011.25
2023-05-16T03:59:00.244Z,1011.26
2023-05-16T04:00:00.231Z,1011.26
2023-05-16T04:01:00.249Z,1011.25
2023-05-16T04:02:00.260Z,1011.25
2023-05-16T04:03:00.254Z,1011.21
2023-05-16T04:04:00.241Z,1011.27
2023-05-16T04:05:00.180Z,1011.29
2023-05-16T04:06:00.259Z,1011.31
2023-05-16T04:07:00.156Z,1011.31
2023-05-16T04:08:00.147Z,1011.32
2023-05-16T04:09:00.148Z,1011.34
2023-05-16T04:10:00.134Z,1011.33
2023-05-16T04:11:00.146Z,1011.37
2023-05-16T04:12:00.124Z,1011.35
2023-05-16T04:13:00.093Z,1011.32
2023-05-16T04:14:00.165Z,1011.35
2023-05-16T04:15:00.074Z,1011.33
2023-05-16T04:16:00.106Z,1011.43
2023-05-16T04:17:00.082Z,1011.35
2023-05-16T04:18:00.129Z,1011.41
2023-05-16T04:19:00.067Z,1011.38
2023-05-16T04:20:00.034Z,1011.44
2023-05-16T04:21:00.005Z,1011.43
2023-05-16T04:21:59.996Z,1011.40
2023-05-16T04:23:00.013Z,1011.46
2023-05-16T04:23:59.979Z,1011.45
2023-05-16T04:25:00.478Z,1011.39
2023-05-16T04:25:59.952Z,1011.41
2023-05-16T04:26:59.955Z,1011.49
2023-05-16T04:27:59.935Z,1011.52
2023-05-16T04:29:00.352Z,1011.51
2023-05-16T04:29:59.964Z,1011.53
2023-05-16T04:30:59.950Z,1011.49
2023-05-16T04:31:59.913Z,1011.51
2023-05-16T04:32:59.928Z,1011.55
2023-05-16T04:33:59.866Z,1011.54
2023-05-16T04:34:59.906Z,1011.56
2023-05-16T04:35:59.846Z,1011.59
2023-05-16T04:36:59.847Z,1011.58
2023-05-16T04:37:59.830Z,1011.59
2023-05-16T04:38:59.812Z,1011.59
2023-05-16T04:39:59.807Z,1011.59
2023-05-16T04:40:59.819Z,1011.63
2023-05-16T04:41:59.782Z,1011.63
2023-05-16T04:42:59.790Z,1011.68
2023-05-16T04:43:59.759Z,1011.71
2023-05-16T04:44:59.772Z,1011.71
2023-05-16T04:45:59.798Z,1011.70
2023-05-16T04:46:59.762Z,1011.72
2023-05-16T04:47:59.743Z,1011.75
2023-05-16T04:48:59.713Z,1011.81
2023-05-16T04:49:59.702Z,1011.73
2023-05-16T04:50:59.698Z,1011.83
2023-05-16T04:51:59.695Z,1011.79
2023-05-16T04:52:59.677Z,1011.77
2023-05-16T04:53:59.657Z,1011.84
2023-05-16T04:54:59.647Z,1011.85
2023-05-16T04:55:59.633Z,1011.81
2023-05-16T04:56:59.628Z,1011.83
2023-05-16T04:57:59.646Z,1011.88
2023-05-16T04:58:59.607Z,1011.81
2023-05-16T04:59:59.601Z,1011.80
2023-05-16T05:01:01.771Z,1011.85
2023-05-16T05:01:59.586Z,1011.84
2023-05-16T05:02:59.611Z,1011.81
2023-05-16T05:03:59.544Z,1011.86
2023-05-16T05:04:59.551Z,1011.84
2023-05-16T05:05:59.543Z,1011.92
2023-05-16T05:06:59.517Z,1011.89
2023-05-16T05:07:59.532Z,1011.87
2023-05-16T05:08:59.494Z,1011.91
2023-05-16T05:09:59.480Z,1011.88
2023-05-16T05:10:59.485Z,1011.91
2023-05-16T05:11:59.463Z,1011.87
2023-05-16T05:12:59.492Z,1011.88
2023-05-16T05:13:59.449Z,1011.89
2023-05-16T05:14:59.473Z,1011.90
2023-05-16T05:15:59.433Z,1011.93
2023-05-16T05:16:59.479Z,1011.87
2023-05-16T05:17:59.518Z,1011.90
2023-05-16T05:18:59.566Z,1011.90
2023-05-16T05:20:00.456Z,1011.94
2023-05-16T05:20:59.371Z,1011.97
2023-05-16T05:21:59.364Z,1011.96
2023-05-16T05:22:59.348Z,1011.98
2023-05-16T05:23:59.342Z,1011.96
2023-05-16T05:24:59.376Z,1011.97
2023-05-16T05:25:59.323Z,1012.04
2023-05-16T05:26:59.318Z,1012.00
2023-05-16T05:27:59.300Z,1012.02
2023-05-16T05:29:05.239Z,1012.03
2023-05-16T05:29:59.301Z,1012.01
2023-05-16T05:30:59.264Z,1012.09
2023-05-16T05:31:59.286Z,1012.09
2023-05-16T05:32:59.391Z,1012.14
2023-05-16T05:33:59.229Z,1012.16
2023-05-16T05:34:59.229Z,1012.16
2023-05-16T05:35:59.221Z,1012.16
2023-05-16T05:36:59.202Z,1012.15
2023-05-16T05:37:59.185Z,1012.23
2023-05-16T05:38:59.179Z,1012.17
2023-05-16T05:39:59.170Z,1012.26
2023-05-16T05:40:59.182Z,1012.21
2023-05-16T05:41:59.154Z,1012.17
2023-05-16T05:42:59.138Z,1012.19
2023-05-16T05:43:59.121Z,1012.18
2023-05-16T05:44:59.112Z,1012.25
2023-05-16T05:45:59.173Z,1012.29
2023-05-16T05:46:59.097Z,1012.22
2023-05-16T05:47:59.181Z,1012.23
2023-05-16T05:48:59.070Z,1012.26
2023-05-16T05:49:59.057Z,1012.26
2023-05-16T05:50:59.047Z,1012.30
2023-05-16T05:51:59.061Z,1012.29
2023-05-16T05:52:59.033Z,1012.28
2023-05-16T05:53:59.021Z,1012.35
2023-05-16T05:54:59.017Z,1012.31
2023-05-16T05:55:58.995Z,1012.37
2023-05-16T05:56:59.014Z,1012.41
2023-05-16T05:57:59.094Z,1012.35
2023-05-16T05:58:58.970Z,1012.38
2023-05-16T05:59:58.952Z,1012.37
2023-05-16T06:00:58.950Z,1012.39
2023-05-16T06:01:58.988Z,1012.40
2023-05-16T06:02:59.058Z,1012.39
2023-05-16T06:04:00.748Z,1012.38
2023-05-16T06:04:58.925Z,1012.37
2023-05-16T06:05:58.990Z,1012.39
2023-05-16T06:06:58.876Z,1012.35
2023-05-16T06:07:58.879Z,1012.39
2023-05-16T06:08:58.875Z,1012.33
2023-05-16T06:09:58.848Z,1012.41
2023-05-16T06:10:58.843Z,1012.36
2023-05-16T06:11:58.877Z,1012.35
2023-05-16T06:12:58.815Z,1012.37
2023-05-16T06:13:58.823Z,1012.41
2023-05-16T06:14:58.791Z,1012.51
2023-05-16T06:15:58.796Z,1012.43
2023-05-16T06:16:58.834Z,1012.45
2023-05-16T06:17:58.811Z,1012.47
2023-05-16T06:18:58.777Z,1012.46
2023-05-16T06:19:58.746Z,1012.46
2023-05-16T06:20:58.735Z,1012.45
2023-05-16T06:21:58.764Z,1012.55
2023-05-16T06:22:58.712Z,1012.49
2023-05-16T06:23:58.706Z,1012.53
2023-05-16T06:24:58.696Z,1012.53
2023-05-16T06:25:58.683Z,1012.49
2023-05-16T06:26:58.668Z,1012.49
2023-05-16T06:27:58.675Z,1012.52
2023-05-16T06:28:58.652Z,1012.50
2023-05-16T06:29:58.633Z,1012.42
2023-05-16T06:30:58.676Z,1012.50
2023-05-16T06:31:58.652Z,1012.46
2023-05-16T06:32:58.614Z,1012.51
2023-05-16T06:33:58.604Z,1012.55
2023-05-16T06:34:58.577Z,1012.58
2023-05-16T06:35:58.577Z,1012.54
2023-05-16T06:36:58.603Z,1012.55
2023-05-16T06:37:58.552Z,1012.51
2023-05-16T06:38:58.536Z,1012.56
2023-05-16T06:39:58.531Z,1012.59
2023-05-16T06:40:58.549Z,1012.52
2023-05-16T06:41:58.511Z,1012.53
2023-05-16T06:42:58.500Z,1012.54
2023-05-16T06:43:58.507Z,1012.46
2023-05-16T06:44:58.480Z,1012.54
2023-05-16T06:45:58.557Z,1012.53
2023-05-16T06:46:58.553Z,1012.59
2023-05-16T06:47:58.455Z,1012.54
2023-05-16T06:48:58.422Z,1012.51
2023-05-16T06:49:58.432Z,1012.64
2023-05-16T06:50:58.414Z,1012.58
2023-05-16T06:51:58.411Z,1012.61
2023-05-16T06:52:58.380Z,1012.57
2023-05-16T06:53:58.368Z,1012.57
2023-05-16T06:54:58.388Z,1012.54
2023-05-16T06:55:58.351Z,1012.58
2023-05-16T06:56:58.335Z,1012.58
2023-05-16T06:57:58.488Z,1012.59
2023-05-16T06:58:58.342Z,1012.52
2023-05-16T06:59:58.352Z,1012.50
2023-05-16T07:00:58.339Z,1012.54
2023-05-16T07:01:58.311Z,1012.56
2023-05-16T07:02:58.363Z,1012.46
2023-05-16T07:03:58.412Z,1012.54
2023-05-16T07:04:58.264Z,1012.61
2023-05-16T07:05:58.281Z,1012.62
2023-05-16T07:06:58.242Z,1012.54
2023-05-16T07:07:58.257Z,1012.46
2023-05-16T07:08:58.202Z,1012.57
2023-05-16T07:09:58.210Z,1012.56
2023-05-16T07:10:58.184Z,1012.54
2023-05-16T07:11:58.177Z,1012.56
2023-05-16T07:12:58.182Z,1012.52
2023-05-16T07:13:58.146Z,1012.59
2023-05-16T07:14:58.132Z,1012.63
2023-05-16T07:15:58.156Z,1012.62
2023-05-16T07:16:58.193Z,1012.63
2023-05-16T07:17:58.166Z,1012.66
2023-05-16T07:18:58.196Z,1012.67
2023-05-16T07:19:58.101Z,1012.65
2023-05-16T07:20:58.088Z,1012.65
2023-05-16T07:21:58.091Z,1012.65
2023-05-16T07:22:58.238Z,1012.74
2023-05-16T07:23:58.063Z,1012.76
2023-05-16T07:24:58.035Z,1012.68
2023-05-16T07:25:58.018Z,1012.67
2023-05-16T07:26:58.002Z,1012.65
2023-05-16T07:27:58.016Z,1012.79
2023-05-16T07:28:58.003Z,1012.71
2023-05-16T07:29:57.972Z,1012.65
2023-05-16T07:30:57.952Z,1012.74
2023-05-16T07:31:57.985Z,1012.68
2023-05-16T07:32:58.006Z,1012.71
2023-05-16T07:33:57.935Z,1012.74
2023-05-16T07:34:57.919Z,1012.74
2023-05-16T07:36:12.064Z,1012.65
2023-05-16T07:36:57.891Z,1012.79
2023-05-16T07:37:57.922Z,1012.67
2023-05-16T07:38:57.870Z,1012.67
2023-05-16T07:39:57.866Z,1012.67
2023-05-16T07:40:57.850Z,1012.68
2023-05-16T07:41:57.853Z,1012.66
2023-05-16T07:42:57.972Z,1012.71
2023-05-16T07:43:57.812Z,1012.69
2023-05-16T07:44:57.805Z,1012.68
2023-05-16T07:45:57.861Z,1012.72
2023-05-16T07:46:57.822Z,1012.64
2023-05-16T07:47:57.801Z,1012.66
2023-05-16T07:48:57.780Z,1012.63
2023-05-16T07:49:57.743Z,1012.78
2023-05-16T07:50:57.742Z,1012.74
2023-05-16T07:51:57.730Z,1012.80
2023-05-16T07:52:57.764Z,1012.75
2023-05-16T07:53:57.741Z,1012.79
2023-05-16T07:54:57.698Z,1012.73
2023-05-16T07:55:57.700Z,1012.76
2023-05-16T07:56:57.668Z,1012.75
2023-05-16T07:57:57.659Z,1012.84
2023-05-16T07:58:57.690Z,1012.71
2023-05-16T07:59:57.654Z,1012.73
2023-05-16T08:00:57.623Z,1012.75
2023-05-16T08:01:57.663Z,1012.69
2023-05-16T08:02:57.651Z,1012.75
2023-05-16T08:03:57.626Z,1012.79
2023-05-16T08:04:57.648Z,1012.80
2023-05-16T08:05:57.693Z,1012.81
2023-05-16T08:06:57.567Z,1012.82
2023-05-16T08:07:57.552Z,1012.79
2023-05-16T08:08:57.621Z,1012.76
2023-05-16T08:09:57.545Z,1012.81
2023-05-16T08:10:57.519Z,1012.82
2023-05-16T08:11:57.514Z,1012.83
2023-05-16T08:12:57.505Z,1012.83
2023-05-16T08:13:57.494Z,1012.71
2023-05-16T08:14:57.498Z,1012.75
2023-05-16T08:15:57.494Z,1012.75
2023-05-16T08:16:57.459Z,1012.79
2023-05-16T08:17:57.519Z,1012.80
2023-05-16T08:18:57.487Z,1012.87
2023-05-16T08:19:57.440Z,1012.85
2023-05-16T08:20:57.438Z,1012.78
2023-05-16T08:21:57.404Z,1012.84
2023-05-16T08:22:57.398Z,1012.79
2023-05-16T08:23:57.385Z,1012.81
2023-05-16T08:24:57.361Z,1012.81
2023-05-16T08:25:57.379Z,1012.81
2023-05-16T08:26:57.356Z,1012.73
2023-05-16T08:27:58.064Z,1012.77
2023-05-16T08:28:57.328Z,1012.79
2023-05-16T08:29:57.321Z,1012.81
2023-05-16T08:30:57.368Z,1012.74
2023-05-16T08:31:57.359Z,1012.84
2023-05-16T08:32:57.291Z,1012.91
2023-05-16T08:33:57.274Z,1012.90
2023-05-16T08:34:57.276Z,1012.96
2023-05-16T08:35:57.245Z,1012.83
2023-05-16T08:36:57.256Z,1012.83
2023-05-16T08:37:57.228Z,1012.93
2023-05-16T08:38:57.232Z,1012.87
2023-05-16T08:39:57.225Z,1012.86
2023-05-16T08:40:57.191Z,1012.90
2023-05-16T08:41:57.216Z,1012.80
2023-05-16T08:42:57.180Z,1012.77
2023-05-16T08:43:57.166Z,1012.79
2023-05-16T08:44:57.164Z,1012.78
2023-05-16T08:45:57.150Z,1012.76
2023-05-16T08:46:59.117Z,1012.81
2023-05-16T08:47:57.251Z,1012.79
2023-05-16T08:48:57.105Z,1012.86
2023-05-16T08:50:05.691Z,1012.85
2023-05-16T08:50:57.084Z,1012.81
2023-05-16T08:51:57.070Z,1012.85
2023-05-16T08:52:57.101Z,1012.80
2023-05-16T08:53:57.055Z,1012.83
2023-05-16T08:55:09.353Z,1012.83
2023-05-16T08:55:57.040Z,1012.81
2023-05-16T08:56:57.027Z,1012.76
2023-05-16T08:57:57.030Z,1012.81
2023-05-16T08:58:57.000Z,1012.81
2023-05-16T08:59:58.692Z,1012.84
2023-05-16T09:00:57.046Z,1012.79
2023-05-16T09:01:56.973Z,1012.76
2023-05-16T09:02:57.002Z,1012.76
2023-05-16T09:03:57.038Z,1012.76
2023-05-16T09:04:56.941Z,1012.72
2023-05-16T09:05:56.925Z,1012.68
2023-05-16T09:06:56.911Z,1012.77
2023-05-16T09:07:56.906Z,1012.76
2023-05-16T09:08:56.907Z,1012.82
2023-05-16T09:09:56.879Z,1012.93
2023-05-16T09:10:56.900Z,1012.86
2023-05-16T09:11:56.866Z,1012.84
2023-05-16T09:12:56.840Z,1012.87
2023-05-16T09:13:56.853Z,1012.90
2023-05-16T09:14:56.847Z,1012.87
2023-05-16T09:15:56.813Z,1012.88
2023-05-16T09:16:56.833Z,1012.85
2023-05-16T09:17:56.958Z,1012.95
2023-05-16T09:18:56.932Z,1012.84
2023-05-16T09:19:56.791Z,1012.77
2023-05-16T09:20:56.761Z,1012.82
2023-05-16T09:21:56.745Z,1012.82
2023-05-16T09:22:56.935Z,1012.77
2023-05-16T09:23:56.741Z,1012.82
2023-05-16T09:24:56.745Z,1012.79
2023-05-16T09:25:56.743Z,1012.77
2023-05-16T09:26:56.700Z,1012.81
2023-05-16T09:27:56.709Z,1012.77
2023-05-16T09:28:56.685Z,1012.74
2023-05-16T09:29:56.664Z,1012.77
2023-05-16T09:30:56.689Z,1012.79
2023-05-16T09:31:56.668Z,1012.74
2023-05-16T09:32:56.781Z,1012.71
2023-05-16T09:33:56.615Z,1012.76
2023-05-16T09:34:56.601Z,1012.69
2023-05-16T09:35:56.598Z,1012.66
2023-05-16T09:36:56.600Z,1012.65
2023-05-16T09:37:56.882Z,1012.72
2023-05-16T09:38:56.569Z,1012.69
2023-05-16T09:39:56.564Z,1012.66
2023-05-16T09:40:56.544Z,1012.68
2023-05-16T09:41:56.562Z,1012.74
2023-05-16T09:42:56.570Z,1012.69
2023-05-16T09:43:56.511Z,1012.73
2023-05-16T09:44:56.494Z,1012.73
2023-05-16T09:45:56.514Z,1012.73
2023-05-16T09:46:56.556Z,1012.68
2023-05-16T09:47:56.469Z,1012.67
2023-05-16T09:48:56.461Z,1012.73
2023-05-16T09:49:56.452Z,1012.65
2023-05-16T09:50:56.423Z,1012.58
2023-05-16T09:51:56.456Z,1012.80
2023-05-16T09:52:56.408Z,1012.62
2023-05-16T09:53:56.390Z,1012.62
2023-05-16T09:54:56.385Z,1012.60
2023-05-16T09:55:56.380Z,1012.62
2023-05-16T09:56:56.380Z,1012.54
2023-05-16T09:57:56.362Z,1012.61
2023-05-16T09:58:56.342Z,1012.75
2023-05-16T09:59:56.331Z,1012.68
2023-05-16T10:00:56.311Z,1012.74
2023-05-16T10:01:56.320Z,1012.66
2023-05-16T10:02:56.385Z,1012.60
2023-05-16T10:03:56.441Z,1012.66
2023-05-16T10:04:56.269Z,1012.60
2023-05-16T10:05:56.275Z,1012.58
2023-05-16T10:06:56.713Z,1012.55
2023-05-16T10:07:56.257Z,1012.57
2023-05-16T10:08:56.225Z,1012.56
2023-05-16T10:09:56.226Z,1012.60
2023-05-16T10:10:56.205Z,1012.61
2023-05-16T10:11:56.213Z,1012.51
2023-05-16T10:12:56.222Z,1012.62
2023-05-16T10:13:56.198Z,1012.54
2023-05-16T10:14:56.163Z,1012.52
2023-05-16T10:15:56.207Z,1012.57
2023-05-16T10:16:56.323Z,1012.61
2023-05-16T10:17:56.257Z,1012.61
2023-05-16T10:18:56.187Z,1012.54
2023-05-16T10:19:56.118Z,1012.55
2023-05-16T10:20:56.094Z,1012.53
2023-05-16T10:21:56.096Z,1012.61
2023-05-16T10:22:56.085Z,1012.56
2023-05-16T10:23:56.102Z,1012.51
2023-05-16T10:24:56.052Z,1012.47
2023-05-16T10:25:56.053Z,1012.45
2023-05-16T10:26:56.024Z,1012.48
2023-05-16T10:27:56.036Z,1012.57
2023-05-16T10:28:56.018Z,1012.56
2023-05-16T10:29:56.019Z,1012.50
2023-05-16T10:30:55.996Z,1012.50
2023-05-16T10:31:56.023Z,1012.49
2023-05-16T10:32:56.010Z,1012.47
2023-05-16T10:33:56.003Z,1012.43
2023-05-16T10:34:55.947Z,1012.39
2023-05-16T10:35:55.937Z,1012.41
2023-05-16T10:36:55.920Z,1012.57
2023-05-16T10:37:55.910Z,1012.52
2023-05-16T10:38:55.898Z,1012.69
2023-05-16T10:39:55.913Z,1012.72
2023-05-16T10:40:55.895Z,1012.56
2023-05-16T10:41:55.866Z,1012.60
2023-05-16T10:42:55.865Z,1012.80
2023-05-16T10:43:55.849Z,1012.88
2023-05-16T10:45:04.929Z,1012.77
2023-05-16T10:45:55.868Z,1012.75
2023-05-16T10:46:55.829Z,1012.71
2023-05-16T10:47:55.941Z,1012.76
2023-05-16T10:48:57.216Z,1012.76
2023-05-16T10:49:55.817Z,1012.80
2023-05-16T10:50:55.779Z,1012.66
2023-05-16T10:51:55.753Z,1012.75
2023-05-16T10:52:55.753Z,1012.71
2023-05-16T10:53:55.748Z,1012.68
2023-05-16T10:54:55.727Z,1012.76
2023-05-16T10:55:55.746Z,1012.72
2023-05-16T10:56:55.698Z,1012.59
2023-05-16T10:57:55.698Z,1012.76
2023-05-16T10:58:55.721Z,1012.50
2023-05-16T10:59:57.844Z,1012.70
2023-05-16T11:00:55.711Z,1012.60
2023-05-16T11:01:55.746Z,1012.56
2023-05-16T11:02:55.769Z,1012.72
2023-05-16T11:03:55.674Z,1012.61
2023-05-16T11:04:55.618Z,1012.69
2023-05-16T11:05:55.895Z,1012.78
2023-05-16T11:06:55.614Z,1012.57
2023-05-16T11:07:55.579Z,1012.48
2023-05-16T11:08:55.575Z,1012.38
2023-05-16T11:09:55.560Z,1012.75
2023-05-16T11:10:55.559Z,1012.67
2023-05-16T11:11:55.545Z,1012.52
2023-05-16T11:12:55.575Z,1012.74
2023-05-16T11:13:55.528Z,1012.73
2023-05-16T11:14:55.514Z,1012.69
2023-05-16T11:15:55.502Z,1012.78
2023-05-16T11:16:55.628Z,1012.74
2023-05-16T11:17:55.480Z,1012.74
2023-05-16T11:18:55.499Z,1012.69
2023-05-16T11:19:55.456Z,1012.70
2023-05-16T11:20:55.467Z,1012.71
2023-05-16T11:21:55.427Z,1012.71
2023-05-16T11:22:55.426Z,1012.36
2023-05-16T11:23:55.405Z,1012.38
2023-05-16T11:24:55.443Z,1012.55
2023-05-16T11:25:55.390Z,1012.39
2023-05-16T11:26:55.402Z,1012.66
2023-05-16T11:27:55.363Z,1012.35
2023-05-16T11:28:55.373Z,1012.37
2023-05-16T11:29:55.369Z,1012.62
2023-05-16T11:30:55.391Z,1012.42
2023-05-16T11:31:55.417Z,1012.46
2023-05-16T11:32:55.361Z,1012.53
2023-05-16T11:33:55.312Z,1012.64
2023-05-16T11:34:55.291Z,1012.53
2023-05-16T11:36:07.458Z,1012.38
2023-05-16T11:36:55.290Z,1012.52
2023-05-16T11:37:55.266Z,1012.65
2023-05-16T11:38:55.246Z,1012.66
2023-05-16T11:39:55.261Z,1012.46
2023-05-16T11:40:55.223Z,1012.43
2023-05-16T11:41:55.234Z,1012.45
2023-05-16T11:42:55.205Z,1012.51
2023-05-16T11:43:55.198Z,1012.71
2023-05-16T11:44:55.183Z,1012.42
2023-05-16T11:45:55.171Z,1012.61
2023-05-16T11:46:55.271Z,1012.51
2023-05-16T11:47:55.233Z,1012.56
2023-05-16T11:48:55.150Z,1012.58
2023-05-16T11:49:55.137Z,1012.53
2023-05-16T11:50:55.119Z,1012.59
2023-05-16T11:51:55.131Z,1012.47
2023-05-16T11:52:55.113Z,1012.50
2023-05-16T11:53:55.088Z,1012.56
2023-05-16T11:54:55.092Z,1012.56
2023-05-16T11:55:56.008Z,1012.61
2023-05-16T11:56:55.071Z,1012.61
2023-05-16T11:57:55.072Z,1012.68
2023-05-16T11:58:55.037Z,1012.71
2023-05-16T11:59:55.053Z,1012.81
2023-05-16T12:00:55.018Z,1012.84
2023-05-16T12:01:55.034Z,1012.83
2023-05-16T12:02:55.049Z,1012.91
2023-05-16T12:03:55.141Z,1012.76
2023-05-16T12:04:54.986Z,1012.81